Zapala, Argentina
Current Conditions -  °F | °C
As of 8:00 AM on Friday 19 Dec 2014 (Local Time) from SAZN Reporting Station
Clear Clear  
Wind Chill: 70°   Ceiling: Unl
Heat Index: 70°   Visibility: 6mi
Dew Point: 34°   Wind: 17mph
Humidity: 27%   Direction: 270°W
Pressure: 29.59"   Gusts: 29mph
Location:  38.9°S, 70.07°W
Report Text: SAZN 191100Z 27015G25KT CAVOK 21/01 Q1002
Loading
Personal Weather Stations






























Interactive Weather Map New forecast layout! Learn more

10-Day Weather Forecast

Advertisements
Track Severe Weather on mobile